sensor_id;sensor_type;location;lat;lon;timestamp;pressure;altitude;pressure_sealevel;temperature;humidity
65614;BME280;52283;49.292;10.572;2022-11-11T00:00:39;97930.63;;;3.29;100.00
65614;BME280;52283;49.292;10.572;2022-11-11T00:03:05;97936.16;;;3.29;100.00
65614;BME280;52283;49.292;10.572;2022-11-11T00:05:32;97931.41;;;3.29;100.00
65614;BME280;52283;49.292;10.572;2022-11-11T00:07:59;97925.16;;;3.25;100.00
65614;BME280;52283;49.292;10.572;2022-11-11T00:10:26;97917.06;;;3.38;100.00
65614;BME280;52283;49.292;10.572;2022-11-11T00:12:52;97925.78;;;3.36;100.00
65614;BME280;52283;49.292;10.572;2022-11-11T00:15:19;97919.16;;;3.30;100.00
65614;BME280;52283;49.292;10.572;2022-11-11T00:17:47;97921.91;;;3.30;100.00
65614;BME280;52283;49.292;10.572;2022-11-11T00:20:30;97928.69;;;3.26;100.00
65614;BME280;52283;49.292;10.572;2022-11-11T00:23:19;97922.25;;;3.09;100.00
65614;BME280;52283;49.292;10.572;2022-11-11T00:26:04;97923.81;;;3.10;100.00
65614;BME280;52283;49.292;10.572;2022-11-11T00:28:30;97923.22;;;2.99;100.00
65614;BME280;52283;49.292;10.572;2022-11-11T00:31:01;97916.25;;;2.87;100.00
65614;BME280;52283;49.292;10.572;2022-11-11T00:33:29;97905.50;;;2.96;100.00
65614;BME280;52283;49.292;10.572;2022-11-11T00:35:55;97906.94;;;3.04;100.00
65614;BME280;52283;49.292;10.572;2022-11-11T00:38:21;97909.34;;;3.02;100.00
65614;BME280;52283;49.292;10.572;2022-11-11T00:41:05;97896.44;;;2.96;100.00
65614;BME280;52283;49.292;10.572;2022-11-11T00:43:32;97891.75;;;2.93;100.00
65614;BME280;52283;49.292;10.572;2022-11-11T00:45:58;97890.84;;;2.99;100.00
65614;BME280;52283;49.292;10.572;2022-11-11T00:48:40;97883.03;;;2.94;100.00
65614;BME280;52283;49.292;10.572;2022-11-11T00:51:24;97886.47;;;3.02;100.00
65614;BME280;52283;49.292;10.572;2022-11-11T00:53:50;97906.28;;;2.97;100.00
65614;BME280;52283;49.292;10.572;2022-11-11T00:56:17;97913.38;;;2.71;100.00
65614;BME280;52283;49.292;10.572;2022-11-11T00:58:44;97914.38;;;2.54;100.00
65614;BME280;52283;49.292;10.572;2022-11-11T01:01:10;97915.28;;;2.43;100.00
65614;BME280;52283;49.292;10.572;2022-11-11T01:03:37;97916.44;;;2.46;100.00
65614;BME280;52283;49.292;10.572;2022-11-11T01:06:05;97924.34;;;2.44;100.00
65614;BME280;52283;49.292;10.572;2022-11-11T01:08:32;97921.69;;;2.37;100.00
65614;BME280;52283;49.292;10.572;2022-11-11T01:10:58;97928.03;;;2.34;100.00
65614;BME280;52283;49.292;10.572;2022-11-11T01:13:26;97930.06;;;2.30;100.00
65614;BME280;52283;49.292;10.572;2022-11-11T01:15:58;97931.22;;;2.29;100.00
65614;BME280;52283;49.292;10.572;2022-11-11T01:18:24;97931.66;;;2.27;100.00
65614;BME280;52283;49.292;10.572;2022-11-11T01:20:58;97934.50;;;2.20;100.00
65614;BME280;52283;49.292;10.572;2022-11-11T01:23:27;97946.78;;;2.16;100.00
65614;BME280;52283;49.292;10.572;2022-11-11T01:25:53;97939.66;;;2.18;100.00
65614;BME280;52283;49.292;10.572;2022-11-11T01:28:20;97944.38;;;2.18;100.00
65614;BME280;52283;49.292;10.572;2022-11-11T01:30:46;97938.25;;;2.03;100.00
65614;BME280;52283;49.292;10.572;2022-11-11T01:33:13;97941.94;;;2.23;100.00
65614;BME280;52283;49.292;10.572;2022-11-11T01:35:40;97936.47;;;2.20;100.00
65614;BME280;52283;49.292;10.572;2022-11-11T01:38:07;97937.31;;;2.17;100.00
65614;BME280;52283;49.292;10.572;2022-11-11T01:40:41;97933.72;;;2.20;100.00
65614;BME280;52283;49.292;10.572;2022-11-11T01:43:16;97931.66;;;2.27;100.00
65614;BME280;52283;49.292;10.572;2022-11-11T01:45:49;97938.81;;;2.21;100.00
65614;BME280;52283;49.292;10.572;2022-11-11T01:48:18;97943.59;;;2.17;100.00
65614;BME280;52283;49.292;10.572;2022-11-11T01:51:05;97949.84;;;2.21;100.00
65614;BME280;52283;49.292;10.572;2022-11-11T01:53:37;97949.13;;;2.17;100.00
65614;BME280;52283;49.292;10.572;2022-11-11T01:56:06;97953.06;;;2.16;100.00
65614;BME280;52283;49.292;10.572;2022-11-11T01:58:34;97947.97;;;2.14;100.00
65614;BME280;52283;49.292;10.572;2022-11-11T02:01:01;97950.72;;;2.14;100.00
65614;BME280;52283;49.292;10.572;2022-11-11T02:03:30;97953.84;;;2.17;100.00
65614;BME280;52283;49.292;10.572;2022-11-11T02:05:58;97956.97;;;2.19;100.00
65614;BME280;52283;49.292;10.572;2022-11-11T02:08:27;97959.75;;;2.19;100.00
65614;BME280;52283;49.292;10.572;2022-11-11T02:10:59;97957.47;;;2.10;100.00
65614;BME280;52283;49.292;10.572;2022-11-11T02:13:29;97953.94;;;2.09;100.00
65614;BME280;52283;49.292;10.572;2022-11-11T02:16:14;97959.31;;;2.20;100.00
65614;BME280;52283;49.292;10.572;2022-11-11T02:18:42;97953.41;;;2.22;100.00
65614;BME280;52283;49.292;10.572;2022-11-11T02:21:10;97960.09;;;2.21;100.00
65614;BME280;52283;49.292;10.572;2022-11-11T02:23:42;97950.03;;;2.03;100.00
65614;BME280;52283;49.292;10.572;2022-11-11T02:26:14;97948.44;;;2.06;100.00
65614;BME280;52283;49.292;10.572;2022-11-11T02:28:42;97938.03;;;2.21;100.00
65614;BME280;52283;49.292;10.572;2022-11-11T02:31:09;97938.34;;;2.26;100.00
65614;BME280;52283;49.292;10.572;2022-11-11T02:33:37;97924.94;;;2.28;100.00
65614;BME280;52283;49.292;10.572;2022-11-11T02:36:04;97929.97;;;2.37;100.00
65614;BME280;52283;49.292;10.572;2022-11-11T02:38:31;97923.88;;;2.49;100.00
65614;BME280;52283;49.292;10.572;2022-11-11T02:40:57;97933.78;;;2.47;100.00
65614;BME280;52283;49.292;10.572;2022-11-11T02:43:43;97934.19;;;2.45;100.00
65614;BME280;52283;49.292;10.572;2022-11-11T02:46:09;97935.13;;;2.35;100.00
65614;BME280;52283;49.292;10.572;2022-11-11T02:48:36;97929.66;;;2.31;100.00
65614;BME280;52283;49.292;10.572;2022-11-11T02:51:03;97929.34;;;2.22;100.00
65614;BME280;52283;49.292;10.572;2022-11-11T02:53:31;97928.31;;;2.43;100.00
65614;BME280;52283;49.292;10.572;2022-11-11T02:55:57;97921.53;;;2.48;100.00
65614;BME280;52283;49.292;10.572;2022-11-11T02:58:24;97929.75;;;2.55;100.00
65614;BME280;52283;49.292;10.572;2022-11-11T03:00:51;97922.31;;;2.52;100.00
65614;BME280;52283;49.292;10.572;2022-11-11T03:03:18;97934.91;;;2.49;100.00
65614;BME280;52283;49.292;10.572;2022-11-11T03:05:44;97936.19;;;2.10;100.00
65614;BME280;52283;49.292;10.572;2022-11-11T03:08:11;97933.75;;;2.16;100.00
65614;BME280;52283;49.292;10.572;2022-11-11T03:10:37;97932.03;;;2.29;100.00
65614;BME280;52283;49.292;10.572;2022-11-11T03:13:04;97938.81;;;2.21;100.00
65614;BME280;52283;49.292;10.572;2022-11-11T03:15:30;97940.75;;;2.24;100.00
65614;BME280;52283;49.292;10.572;2022-11-11T03:17:58;97939.59;;;2.22;100.00
65614;BME280;52283;49.292;10.572;2022-11-11T03:20:24;97952.69;;;2.14;100.00
65614;BME280;52283;49.292;10.572;2022-11-11T03:23:10;97956.25;;;2.14;100.00
65614;BME280;52283;49.292;10.572;2022-11-11T03:25:38;97959.78;;;2.15;100.00
65614;BME280;52283;49.292;10.572;2022-11-11T03:28:05;97963.72;;;2.14;100.00
65614;BME280;52283;49.292;10.572;2022-11-11T03:30:31;97966.91;;;2.12;100.00
65614;BME280;52283;49.292;10.572;2022-11-11T03:32:59;97965.56;;;1.90;100.00
65614;BME280;52283;49.292;10.572;2022-11-11T03:35:26;97960.19;;;2.13;100.00
65614;BME280;52283;49.292;10.572;2022-11-11T03:37:52;97949.56;;;2.12;100.00
65614;BME280;52283;49.292;10.572;2022-11-11T03:40:37;97946.38;;;2.48;100.00
65614;BME280;52283;49.292;10.572;2022-11-11T03:43:03;97947.66;;;2.39;100.00
65614;BME280;52283;49.292;10.572;2022-11-11T03:45:30;97949.28;;;2.37;100.00
65614;BME280;52283;49.292;10.572;2022-11-11T03:47:57;97947.34;;;2.34;100.00
65614;BME280;52283;49.292;10.572;2022-11-11T03:50:24;97950.06;;;2.37;100.00
65614;BME280;52283;49.292;10.572;2022-11-11T03:52:51;97958.34;;;2.37;100.00
65614;BME280;52283;49.292;10.572;2022-11-11T03:55:17;97963.91;;;2.34;100.00
65614;BME280;52283;49.292;10.572;2022-11-11T03:57:45;97946.69;;;2.23;100.00
65614;BME280;52283;49.292;10.572;2022-11-11T04:00:15;97936.47;;;2.54;100.00
65614;BME280;52283;49.292;10.572;2022-11-11T04:02:41;97927.34;;;2.57;100.00
65614;BME280;52283;49.292;10.572;2022-11-11T04:05:27;97934.59;;;2.43;100.00
65614;BME280;52283;49.292;10.572;2022-11-11T04:08:12;97943.47;;;2.28;100.00
65614;BME280;52283;49.292;10.572;2022-11-11T04:10:57;97953.53;;;2.11;100.00
65614;BME280;52283;49.292;10.572;2022-11-11T04:13:24;97957.66;;;1.92;100.00
65614;BME280;52283;49.292;10.572;2022-11-11T04:16:08;97964.41;;;1.88;100.00
65614;BME280;52283;49.292;10.572;2022-11-11T04:18:35;97967.50;;;1.93;100.00
65614;BME280;52283;49.292;10.572;2022-11-11T04:21:22;97957.03;;;2.15;100.00
65614;BME280;52283;49.292;10.572;2022-11-11T04:24:07;97952.69;;;2.14;100.00
65614;BME280;52283;49.292;10.572;2022-11-11T04:26:53;97954.41;;;2.01;100.00
65614;BME280;52283;49.292;10.572;2022-11-11T04:29:19;97957.28;;;1.90;100.00
65614;BME280;52283;49.292;10.572;2022-11-11T04:31:57;97971.91;;;1.83;100.00
65614;BME280;52283;49.292;10.572;2022-11-11T04:34:43;97968.81;;;1.78;100.00
65614;BME280;52283;49.292;10.572;2022-11-11T04:37:12;97979.06;;;1.77;100.00
65614;BME280;52283;49.292;10.572;2022-11-11T04:39:39;97969.28;;;1.73;100.00
65614;BME280;52283;49.292;10.572;2022-11-11T04:42:24;97978.34;;;1.70;100.00
65614;BME280;52283;49.292;10.572;2022-11-11T04:44:51;97977.19;;;1.67;100.00
65614;BME280;52283;49.292;10.572;2022-11-11T04:47:35;97988.28;;;1.60;100.00
65614;BME280;52283;49.292;10.572;2022-11-11T04:50:01;97988.66;;;1.62;100.00
65614;BME280;52283;49.292;10.572;2022-11-11T04:52:29;97996.09;;;1.65;100.00
65614;BME280;52283;49.292;10.572;2022-11-11T04:54:57;98008.31;;;1.68;100.00
65614;BME280;52283;49.292;10.572;2022-11-11T04:57:43;98014.97;;;1.70;100.00
65614;BME280;52283;49.292;10.572;2022-11-11T05:00:12;98009.09;;;1.65;100.00
65614;BME280;52283;49.292;10.572;2022-11-11T05:02:39;97997.41;;;1.50;100.00
65614;BME280;52283;49.292;10.572;2022-11-11T05:05:24;98005.16;;;1.66;100.00
65614;BME280;52283;49.292;10.572;2022-11-11T05:07:52;98008.59;;;1.77;100.00
65614;BME280;52283;49.292;10.572;2022-11-11T05:10:36;98003.88;;;1.77;100.00
65614;BME280;52283;49.292;10.572;2022-11-11T05:13:03;98009.75;;;1.79;100.00
65614;BME280;52283;49.292;10.572;2022-11-11T05:15:47;98014.44;;;1.82;100.00
65614;BME280;52283;49.292;10.572;2022-11-11T05:18:32;98018.81;;;1.80;100.00
65614;BME280;52283;49.292;10.572;2022-11-11T05:21:19;98023.88;;;1.85;100.00
65614;BME280;52283;49.292;10.572;2022-11-11T05:23:49;98029.44;;;1.81;100.00
65614;BME280;52283;49.292;10.572;2022-11-11T05:26:33;98021.19;;;1.78;100.00
65614;BME280;52283;49.292;10.572;2022-11-11T05:29:00;98032.22;;;1.78;100.00
65614;BME280;52283;49.292;10.572;2022-11-11T05:31:27;98024.03;;;2.12;100.00
65614;BME280;52283;49.292;10.572;2022-11-11T05:33:53;98015.91;;;2.35;100.00
65614;BME280;52283;49.292;10.572;2022-11-11T05:36:20;98022.69;;;2.27;100.00
65614;BME280;52283;49.292;10.572;2022-11-11T05:38:46;98028.97;;;2.28;100.00
65614;BME280;52283;49.292;10.572;2022-11-11T05:41:14;98033.78;;;2.20;100.00
65614;BME280;52283;49.292;10.572;2022-11-11T05:43:41;98036.66;;;2.09;100.00
65614;BME280;52283;49.292;10.572;2022-11-11T05:46:07;98033.47;;;2.14;100.00
65614;BME280;52283;49.292;10.572;2022-11-11T05:48:34;98035.06;;;2.12;100.00
65614;BME280;52283;49.292;10.572;2022-11-11T05:51:20;98047.31;;;2.07;100.00
65614;BME280;52283;49.292;10.572;2022-11-11T05:53:52;98040.25;;;2.03;100.00
65614;BME280;52283;49.292;10.572;2022-11-11T05:56:20;98043.47;;;1.98;100.00
65614;BME280;52283;49.292;10.572;2022-11-11T05:58:46;98058.06;;;1.95;100.00
65614;BME280;52283;49.292;10.572;2022-11-11T06:01:13;98054.16;;;1.92;100.00
65614;BME280;52283;49.292;10.572;2022-11-11T06:03:39;98061.69;;;1.88;100.00
65614;BME280;52283;49.292;10.572;2022-11-11T06:06:06;98058.97;;;1.81;100.00
65614;BME280;52283;49.292;10.572;2022-11-11T06:08:32;98063.28;;;1.82;100.00
65614;BME280;52283;49.292;10.572;2022-11-11T06:10:59;98065.31;;;1.74;100.00
65614;BME280;52283;49.292;10.572;2022-11-11T06:13:27;98075.16;;;1.75;100.00
65614;BME280;52283;49.292;10.572;2022-11-11T06:15:55;98077.88;;;1.79;100.00
65614;BME280;52283;49.292;10.572;2022-11-11T06:18:21;98075.47;;;1.84;100.00
65614;BME280;52283;49.292;10.572;2022-11-11T06:20:51;98075.91;;;1.79;100.00
65614;BME280;52283;49.292;10.572;2022-11-11T06:23:18;98075.22;;;1.65;100.00
65614;BME280;52283;49.292;10.572;2022-11-11T06:25:45;98084.81;;;1.42;100.00
65614;BME280;52283;49.292;10.572;2022-11-11T06:28:30;98078.75;;;1.65;100.00
65614;BME280;52283;49.292;10.572;2022-11-11T06:30:57;98084.31;;;1.62;100.00
65614;BME280;52283;49.292;10.572;2022-11-11T06:33:23;98080.31;;;1.66;100.00
65614;BME280;52283;49.292;10.572;2022-11-11T06:35:50;98082.78;;;1.57;100.00
65614;BME280;52283;49.292;10.572;2022-11-11T06:38:17;98084.75;;;1.57;100.00
65614;BME280;52283;49.292;10.572;2022-11-11T06:40:44;98078.34;;;1.70;100.00
65614;BME280;52283;49.292;10.572;2022-11-11T06:43:10;98064.81;;;1.90;100.00
65614;BME280;52283;49.292;10.572;2022-11-11T06:45:38;98068.28;;;1.98;100.00
65614;BME280;52283;49.292;10.572;2022-11-11T06:48:06;98064.28;;;2.02;100.00
65614;BME280;52283;49.292;10.572;2022-11-11T06:50:32;98069.06;;;1.98;100.00
65614;BME280;52283;49.292;10.572;2022-11-11T06:53:03;98079.28;;;2.01;100.00
65614;BME280;52283;49.292;10.572;2022-11-11T06:55:30;98070.59;;;2.03;100.00
65614;BME280;52283;49.292;10.572;2022-11-11T06:58:03;98076.94;;;2.00;100.00
65614;BME280;52283;49.292;10.572;2022-11-11T07:00:29;98082.91;;;1.91;100.00
65614;BME280;52283;49.292;10.572;2022-11-11T07:02:57;98071.06;;;1.94;100.00
65614;BME280;52283;49.292;10.572;2022-11-11T07:05:24;98075.41;;;1.95;100.00
65614;BME280;52283;49.292;10.572;2022-11-11T07:07:50;98071.66;;;2.16;100.00
65614;BME280;52283;49.292;10.572;2022-11-11T07:10:17;98078.00;;;2.13;100.00
65614;BME280;52283;49.292;10.572;2022-11-11T07:12:44;98074.16;;;2.00;100.00
65614;BME280;52283;49.292;10.572;2022-11-11T07:15:10;98077.41;;;1.91;100.00
65614;BME280;52283;49.292;10.572;2022-11-11T07:17:36;98078.94;;;1.96;100.00
65614;BME280;52283;49.292;10.572;2022-11-11T07:20:06;98076.09;;;2.03;100.00
65614;BME280;52283;49.292;10.572;2022-11-11T07:22:34;98076.47;;;2.08;100.00
65614;BME280;52283;49.292;10.572;2022-11-11T07:25:01;98079.22;;;2.08;100.00
65614;BME280;52283;49.292;10.572;2022-11-11T07:27:27;98081.53;;;2.13;100.00
65614;BME280;52283;49.292;10.572;2022-11-11T07:29:53;98083.59;;;2.02;100.00
65614;BME280;52283;49.292;10.572;2022-11-11T07:32:20;98087.16;;;1.99;100.00
65614;BME280;52283;49.292;10.572;2022-11-11T07:34:47;98093.47;;;2.00;100.00
65614;BME280;52283;49.292;10.572;2022-11-11T07:37:15;98083.16;;;2.11;100.00
65614;BME280;52283;49.292;10.572;2022-11-11T07:39:42;98095.66;;;2.19;100.00
65614;BME280;52283;49.292;10.572;2022-11-11T07:42:08;98090.16;;;2.19;100.00
65614;BME280;52283;49.292;10.572;2022-11-11T07:44:35;98092.84;;;2.26;100.00
65614;BME280;52283;49.292;10.572;2022-11-11T07:47:01;98092.84;;;2.26;100.00
65614;BME280;52283;49.292;10.572;2022-11-11T07:49:28;98095.16;;;2.31;100.00
65614;BME280;52283;49.292;10.572;2022-11-11T07:51:54;98102.25;;;2.29;100.00
65614;BME280;52283;49.292;10.572;2022-11-11T07:54:22;98101.34;;;2.42;100.00
65614;BME280;52283;49.292;10.572;2022-11-11T07:56:48;98098.03;;;2.58;100.00
65614;BME280;52283;49.292;10.572;2022-11-11T07:59:15;98088.84;;;2.68;100.00
65614;BME280;52283;49.292;10.572;2022-11-11T08:01:42;98094.03;;;2.63;100.00
65614;BME280;52283;49.292;10.572;2022-11-11T08:04:08;98091.13;;;2.77;100.00
65614;BME280;52283;49.292;10.572;2022-11-11T08:06:35;98102.88;;;2.85;100.00
65614;BME280;52283;49.292;10.572;2022-11-11T08:09:01;98103.69;;;2.82;100.00
65614;BME280;52283;49.292;10.572;2022-11-11T08:11:29;98102.44;;;2.86;100.00
65614;BME280;52283;49.292;10.572;2022-11-11T08:14:13;98108.22;;;2.99;100.00
65614;BME280;52283;49.292;10.572;2022-11-11T08:16:40;98100.50;;;3.17;100.00
65614;BME280;52283;49.292;10.572;2022-11-11T08:19:06;98105.41;;;3.33;100.00
65614;BME280;52283;49.292;10.572;2022-11-11T08:21:33;98109.25;;;3.43;100.00
65614;BME280;52283;49.292;10.572;2022-11-11T08:23:59;98106.28;;;3.57;100.00
65614;BME280;52283;49.292;10.572;2022-11-11T08:26:26;98109.19;;;3.73;100.00
65614;BME280;52283;49.292;10.572;2022-11-11T08:28:54;98115.72;;;3.86;100.00
65614;BME280;52283;49.292;10.572;2022-11-11T08:31:20;98109.91;;;4.04;100.00
65614;BME280;52283;49.292;10.572;2022-11-11T08:33:46;98121.56;;;4.15;100.00
65614;BME280;52283;49.292;10.572;2022-11-11T08:36:13;98113.81;;;4.30;100.00
65614;BME280;52283;49.292;10.572;2022-11-11T08:38:39;98112.31;;;4.49;100.00
65614;BME280;52283;49.292;10.572;2022-11-11T08:41:06;98109.41;;;4.56;100.00
65614;BME280;52283;49.292;10.572;2022-11-11T08:43:33;98110.22;;;4.76;100.00
65614;BME280;52283;49.292;10.572;2022-11-11T08:46:02;98103.19;;;4.92;100.00
65614;BME280;52283;49.292;10.572;2022-11-11T08:48:29;98113.84;;;5.13;100.00
65614;BME280;52283;49.292;10.572;2022-11-11T08:50:56;98117.13;;;5.28;100.00
65614;BME280;52283;49.292;10.572;2022-11-11T08:53:23;98118.53;;;5.36;100.00
65614;BME280;52283;49.292;10.572;2022-11-11T08:55:50;98110.13;;;5.39;100.00
65614;BME280;52283;49.292;10.572;2022-11-11T08:58:16;98104.44;;;5.46;100.00
65614;BME280;52283;49.292;10.572;2022-11-11T09:00:43;98094.41;;;5.53;100.00
65614;BME280;52283;49.292;10.572;2022-11-11T09:03:11;98103.03;;;5.74;100.00
65614;BME280;52283;49.292;10.572;2022-11-11T09:05:38;98099.53;;;5.90;100.00
65614;BME280;52283;49.292;10.572;2022-11-11T09:08:07;98113.84;;;6.05;100.00
65614;BME280;52283;49.292;10.572;2022-11-11T09:10:34;98111.41;;;6.07;100.00
65614;BME280;52283;49.292;10.572;2022-11-11T09:13:01;98106.72;;;6.20;100.00
65614;BME280;52283;49.292;10.572;2022-11-11T09:15:28;98103.34;;;6.29;100.00
65614;BME280;52283;49.292;10.572;2022-11-11T09:17:55;98110.06;;;6.44;100.00
65614;BME280;52283;49.292;10.572;2022-11-11T09:20:23;98100.06;;;6.63;100.00
65614;BME280;52283;49.292;10.572;2022-11-11T09:22:49;98107.59;;;6.79;100.00
65614;BME280;52283;49.292;10.572;2022-11-11T09:25:17;98100.91;;;7.05;100.00
65614;BME280;52283;49.292;10.572;2022-11-11T09:27:52;98097.09;;;7.41;100.00
65614;BME280;52283;49.292;10.572;2022-11-11T09:30:19;98100.13;;;7.84;100.00
65614;BME280;52283;49.292;10.572;2022-11-11T09:32:45;98093.00;;;8.21;100.00
65614;BME280;52283;49.292;10.572;2022-11-11T09:35:12;98100.06;;;8.61;100.00
65614;BME280;52283;49.292;10.572;2022-11-11T09:37:40;98090.25;;;8.91;100.00
65614;BME280;52283;49.292;10.572;2022-11-11T09:40:09;98104.66;;;9.11;100.00
65614;BME280;52283;49.292;10.572;2022-11-11T09:42:43;98105.69;;;9.26;100.00
65614;BME280;52283;49.292;10.572;2022-11-11T09:45:18;98117.31;;;9.25;100.00
65614;BME280;52283;49.292;10.572;2022-11-11T09:47:52;98123.06;;;9.08;100.00
65614;BME280;52283;49.292;10.572;2022-11-11T09:50:21;98131.09;;;8.84;100.00
65614;BME280;52283;49.292;10.572;2022-11-11T09:52:53;98123.06;;;8.86;100.00
65614;BME280;52283;49.292;10.572;2022-11-11T09:55:26;98136.28;;;8.95;100.00
65614;BME280;52283;49.292;10.572;2022-11-11T09:57:57;98131.13;;;9.06;100.00
65614;BME280;52283;49.292;10.572;2022-11-11T10:00:28;98130.84;;;9.13;100.00
65614;BME280;52283;49.292;10.572;2022-11-11T10:02:59;98139.94;;;9.27;100.00
65614;BME280;52283;49.292;10.572;2022-11-11T10:05:32;98135.53;;;9.38;100.00
65614;BME280;52283;49.292;10.572;2022-11-11T10:08:05;98121.03;;;9.53;100.00
65614;BME280;52283;49.292;10.572;2022-11-11T10:10:41;98116.16;;;9.66;100.00
65614;BME280;52283;49.292;10.572;2022-11-11T10:13:12;98126.41;;;9.69;100.00
65614;BME280;52283;49.292;10.572;2022-11-11T10:15:47;98129.38;;;9.74;100.00
65614;BME280;52283;49.292;10.572;2022-11-11T10:18:26;98126.44;;;9.78;100.00
65614;BME280;52283;49.292;10.572;2022-11-11T10:20:55;98127.13;;;9.91;100.00
65614;BME280;52283;49.292;10.572;2022-11-11T10:23:28;98124.41;;;10.00;100.00
65614;BME280;52283;49.292;10.572;2022-11-11T10:26:00;98124.13;;;10.17;100.00
65614;BME280;52283;49.292;10.572;2022-11-11T10:28:30;98126.69;;;10.24;100.00
65614;BME280;52283;49.292;10.572;2022-11-11T10:31:00;98130.63;;;10.45;100.00
65614;BME280;52283;49.292;10.572;2022-11-11T10:33:30;98130.47;;;10.48;100.00
65614;BME280;52283;49.292;10.572;2022-11-11T10:36:00;98120.22;;;10.54;100.00
65614;BME280;52283;49.292;10.572;2022-11-11T10:38:34;98120.56;;;10.65;100.00
65614;BME280;52283;49.292;10.572;2022-11-11T10:41:10;98116.06;;;10.95;100.00
65614;BME280;52283;49.292;10.572;2022-11-11T10:43:43;98124.16;;;11.30;100.00
65614;BME280;52283;49.292;10.572;2022-11-11T10:46:14;98118.38;;;11.43;100.00
65614;BME280;52283;49.292;10.572;2022-11-11T10:48:50;98120.88;;;11.41;100.00
65614;BME280;52283;49.292;10.572;2022-11-11T10:51:18;98120.53;;;11.57;100.00
65614;BME280;52283;49.292;10.572;2022-11-11T10:53:52;98128.78;;;11.42;100.00
65614;BME280;52283;49.292;10.572;2022-11-11T10:56:28;98133.13;;;11.43;100.00
65614;BME280;52283;49.292;10.572;2022-11-11T10:59:08;98138.13;;;11.48;100.00
65614;BME280;52283;49.292;10.572;2022-11-11T11:01:39;98128.00;;;11.51;100.00
65614;BME280;52283;49.292;10.572;2022-11-11T11:04:10;98142.63;;;11.55;100.00
65614;BME280;52283;49.292;10.572;2022-11-11T11:06:43;98142.00;;;11.42;100.00
65614;BME280;52283;49.292;10.572;2022-11-11T11:09:16;98127.25;;;11.50;100.00
65614;BME280;52283;49.292;10.572;2022-11-11T11:11:49;98132.22;;;11.46;100.00
65614;BME280;52283;49.292;10.572;2022-11-11T11:14:20;98130.59;;;11.73;100.00
65614;BME280;52283;49.292;10.572;2022-11-11T11:16:50;98127.19;;;11.87;100.00
65614;BME280;52283;49.292;10.572;2022-11-11T11:19:20;98120.78;;;11.77;100.00
65614;BME280;52283;49.292;10.572;2022-11-11T11:21:52;98117.53;;;11.79;100.00
65614;BME280;52283;49.292;10.572;2022-11-11T11:24:23;98107.22;;;11.94;100.00
65614;BME280;52283;49.292;10.572;2022-11-11T11:26:52;98108.19;;;11.82;100.00
65614;BME280;52283;49.292;10.572;2022-11-11T11:29:30;98093.88;;;11.89;100.00
65614;BME280;52283;49.292;10.572;2022-11-11T11:32:14;98091.84;;;11.89;100.00
65614;BME280;52283;49.292;10.572;2022-11-11T11:34:49;98085.00;;;11.90;100.00
65614;BME280;52283;49.292;10.572;2022-11-11T11:37:17;98098.38;;;11.86;100.00
65614;BME280;52283;49.292;10.572;2022-11-11T11:39:46;98091.56;;;11.78;100.00
65614;BME280;52283;49.292;10.572;2022-11-11T11:42:30;98086.13;;;11.66;100.00
65614;BME280;52283;49.292;10.572;2022-11-11T11:45:14;98087.06;;;11.63;100.00
65614;BME280;52283;49.292;10.572;2022-11-11T11:47:46;98096.41;;;11.69;100.00
65614;BME280;52283;49.292;10.572;2022-11-11T11:50:28;98104.03;;;11.59;100.00
65614;BME280;52283;49.292;10.572;2022-11-11T11:53:05;98098.25;;;11.63;100.00
65614;BME280;52283;49.292;10.572;2022-11-11T11:55:41;98100.28;;;11.71;100.00
65614;BME280;52283;49.292;10.572;2022-11-11T11:58:20;98087.16;;;11.86;100.00
65614;BME280;52283;49.292;10.572;2022-11-11T12:00:54;98083.28;;;11.84;100.00
65614;BME280;52283;49.292;10.572;2022-11-11T12:03:45;98086.72;;;11.88;100.00
65614;BME280;52283;49.292;10.572;2022-11-11T12:06:19;98090.91;;;11.83;100.00
65614;BME280;52283;49.292;10.572;2022-11-11T12:08:51;98074.88;;;11.84;100.00
65614;BME280;52283;49.292;10.572;2022-11-11T12:11:26;98078.75;;;11.86;100.00
65614;BME280;52283;49.292;10.572;2022-11-11T12:14:14;98075.56;;;12.03;100.00
65614;BME280;52283;49.292;10.572;2022-11-11T12:16:52;98081.06;;;11.97;99.50
65614;BME280;52283;49.292;10.572;2022-11-11T12:19:34;98081.78;;;12.40;100.00
65614;BME280;52283;49.292;10.572;2022-11-11T12:22:10;98075.28;;;12.34;96.60
65614;BME280;52283;49.292;10.572;2022-11-11T12:24:48;98091.03;;;12.31;96.10
65614;BME280;52283;49.292;10.572;2022-11-11T12:27:26;98080.72;;;12.28;94.06
65614;BME280;52283;49.292;10.572;2022-11-11T12:30:02;98078.28;;;12.21;92.53
65614;BME280;52283;49.292;10.572;2022-11-11T12:32:42;98076.72;;;12.29;93.03
65614;BME280;52283;49.292;10.572;2022-11-11T12:35:25;98088.13;;;12.16;93.71
65614;BME280;52283;49.292;10.572;2022-11-11T12:38:04;98082.25;;;12.05;89.61
65614;BME280;52283;49.292;10.572;2022-11-11T12:40:42;98083.53;;;12.28;89.70
65614;BME280;52283;49.292;10.572;2022-11-11T12:43:20;98076.75;;;12.44;86.46
65614;BME280;52283;49.292;10.572;2022-11-11T12:45:56;98078.84;;;12.58;87.09
65614;BME280;52283;49.292;10.572;2022-11-11T12:48:41;98065.69;;;12.49;81.65
65614;BME280;52283;49.292;10.572;2022-11-11T12:51:21;98071.09;;;12.53;82.17
65614;BME280;52283;49.292;10.572;2022-11-11T12:54:00;98078.59;;;12.23;84.02
65614;BME280;52283;49.292;10.572;2022-11-11T12:56:37;98073.63;;;12.51;82.43
65614;BME280;52283;49.292;10.572;2022-11-11T12:59:15;98082.03;;;12.51;83.42
65614;BME280;52283;49.292;10.572;2022-11-11T13:01:52;98079.03;;;12.31;84.67
65614;BME280;52283;49.292;10.572;2022-11-11T13:04:28;98082.63;;;12.55;84.26
65614;BME280;52283;49.292;10.572;2022-11-11T13:07:10;98078.59;;;12.47;86.60